LFMH/EBU METAR and TAF weather

Enter ICAO airport designator
Station Type Date Time Source
LFMH METAR 2021/09/25 12:30 UTC NOAA

LFMH 251230Z AUTO 20010KT 150V250 9999 FEW052 26/14 Q1016


Station Type Date Time Source
LFMH Decoded METAR 2021/09/25 12:30 UTC NOAA

St-Etienne Boutheon, France (LFMH) 45-32N 004-18E 402M
Sep 25, 2021 - 08:30 AM EDT / 2021.09.25 1230 UTC
Wind: from the SSW (200 degrees) at 12 MPH (10 KT) (direction variable):0
Visibility: greater than 7 mile(s):0
Sky conditions: mostly clear
Temperature: 78 F (26 C)
Dew Point: 57 F (14 C)
Relative Humidity: 47%
Pressure (altimeter): 30.00 in. Hg (1016 hPa)
ob: LFMH 251230Z AUTO 20010KT 150V250 9999 FEW052 26/14 Q1016
cycle: 12

Station Type Date Time Source
LFMH TAF 2021/06/16 19:09 UTC NOAA

TAF LFMH 161901Z 1619/1712 CNL

Example: see airport list